Time;durP1;ratioP1;P1;durP2;ratioP2;P2;SDS_P1;SDS_P2;PMS_P1;PMS_P2;Temp;Humidity;BMP_temperature;BMP_pressure;BME280_temperature;BME280_humidity;BME280_pressure;Samples;Min_cycle;Max_cycle;Signal;HPM_P1;HPM_P2
2021/01/09 00:00:08;;;;;;;14.45;8.95;;;1.40;92.00;;;;;;5075093;28;20025;-81
2021/01/09 00:02:33;;;;;;;16.80;9.65;;;1.40;92.00;;;;;;5091964;28;20553;-81
2021/01/09 00:04:59;;;;;;;14.43;8.73;;;1.40;92.00;;;;;;5057867;28;20069;-81
2021/01/09 00:07:25;;;;;;;15.10;9.85;;;1.40;92.10;;;;;;5073977;28;20029;-81
2021/01/09 00:09:50;;;;;;;16.05;10.40;;;1.40;92.10;;;;;;5075014;28;20119;-81
2021/01/09 00:12:16;;;;;;;23.40;10.98;;;1.50;92.10;;;;;;5075008;28;20027;-81
2021/01/09 00:14:41;;;;;;;15.88;10.25;;;1.50;92.10;;;;;;5091856;28;20107;-81
2021/01/09 00:17:08;;;;;;;15.93;10.40;;;1.50;92.10;;;;;;5071439;28;20033;-81
2021/01/09 00:19:35;;;;;;;14.82;9.30;;;1.50;92.20;;;;;;5091337;28;20523;-81
2021/01/09 00:22:01;;;;;;;14.88;10.43;;;1.50;92.30;;;;;;5091776;28;20353;-81
2021/01/09 00:24:27;;;;;;;15.70;10.88;;;1.50;92.20;;;;;;5071685;28;20546;-81
2021/01/09 00:26:52;;;;;;;16.25;10.40;;;1.50;92.40;;;;;;5091458;28;20058;-81
2021/01/09 00:29:18;;;;;;;15.75;9.88;;;1.50;92.40;;;;;;5074644;28;20052;-81
2021/01/09 00:31:44;;;;;;;16.58;10.15;;;1.50;92.30;;;;;;5091863;28;20075;-79
2021/01/09 00:34:10;;;;;;;20.48;10.73;;;1.60;92.40;;;;;;5074724;28;20484;-79
2021/01/09 00:36:35;;;;;;;21.65;10.75;;;1.60;92.40;;;;;;5074405;28;20123;-79
2021/01/09 00:39:03;;;;;;;17.02;10.20;;;1.60;92.40;;;;;;5090954;28;20519;-79
2021/01/09 00:41:30;;;;;;;24.38;12.15;;;1.60;92.40;;;;;;5091787;28;20103;-79
2021/01/09 00:43:57;;;;;;;20.85;12.32;;;1.60;92.40;;;;;;5090659;28;20027;-79
2021/01/09 00:46:23;;;;;;;20.65;12.35;;;1.60;92.40;;;;;;5091884;28;20035;-79
2021/01/09 00:48:49;;;;;;;23.63;12.55;;;1.60;92.50;;;;;;5073892;28;20024;-79
2021/01/09 00:51:15;;;;;;;19.90;11.82;;;1.60;92.50;;;;;;5090245;28;20031;-79
2021/01/09 00:53:41;;;;;;;20.23;12.38;;;1.60;92.60;;;;;;5089683;28;20025;-78
2021/01/09 00:56:07;;;;;;;20.63;11.57;;;1.60;92.60;;;;;;5073319;28;20020;-79
2021/01/09 00:58:36;;;;;;;20.95;12.65;;;1.60;92.60;;;;;;5073824;28;20031;-79
2021/01/09 01:01:02;;;;;;;21.20;11.98;;;1.60;92.60;;;;;;5078731;28;20032;-79
2021/01/09 01:03:28;;;;;;;18.85;12.13;;;1.70;92.60;;;;;;5090604;28;20028;-80
2021/01/09 01:05:54;;;;;;;25.73;12.23;;;1.70;92.60;;;;;;5072721;28;20085;-80
2021/01/09 01:08:21;;;;;;;26.88;14.43;;;1.70;92.70;;;;;;5090953;28;20024;-80
2021/01/09 01:10:47;;;;;;;18.30;12.02;;;1.70;92.70;;;;;;5091309;28;20028;-79
2021/01/09 01:13:13;;;;;;;23.27;13.10;;;1.70;92.70;;;;;;5071734;28;20039;-80
2021/01/09 01:15:39;;;;;;;20.05;12.40;;;1.70;92.70;;;;;;5091040;28;20036;-80
2021/01/09 01:18:05;;;;;;;19.45;12.15;;;1.70;92.70;;;;;;5094487;28;20450;-79
2021/01/09 01:20:30;;;;;;;20.63;12.77;;;1.70;92.70;;;;;;5074669;28;20032;-80
2021/01/09 01:22:56;;;;;;;28.30;14.43;;;1.60;92.60;;;;;;5078221;28;20073;-80
2021/01/09 01:25:22;;;;;;;28.52;14.98;;;1.60;92.70;;;;;;5074681;28;20036;-79
2021/01/09 01:27:47;;;;;;;24.80;14.52;;;1.60;92.80;;;;;;5073235;28;20071;-79
2021/01/09 01:30:14;;;;;;;28.83;15.02;;;1.60;92.90;;;;;;5077733;28;20040;-81
2021/01/09 01:32:39;;;;;;;27.67;15.10;;;1.50;92.80;;;;;;5095077;28;20027;-81
2021/01/09 01:35:06;;;;;;;27.52;15.35;;;1.50;92.90;;;;;;5093669;28;20043;-79
2021/01/09 01:37:31;;;;;;;26.50;13.95;;;1.50;93.00;;;;;;5094680;28;20420;-79
2021/01/09 01:39:57;;;;;;;20.73;12.65;;;1.40;93.00;;;;;;5074569;28;20032;-79
2021/01/09 01:42:23;;;;;;;18.67;11.77;;;1.40;93.10;;;;;;5061261;28;20492;-79
2021/01/09 01:44:48;;;;;;;24.88;14.80;;;1.50;93.20;;;;;;5094594;28;20115;-79
2021/01/09 01:47:19;;;;;;;25.10;13.65;;;1.50;93.10;;;;;;5074206;28;20115;-79
2021/01/09 01:49:46;;;;;;;25.25;12.70;;;1.50;93.10;;;;;;5081834;28;20116;-79
2021/01/09 01:52:16;;;;;;;20.40;12.30;;;1.50;93.10;;;;;;5093427;28;20024;-79
2021/01/09 01:54:45;;;;;;;25.52;13.85;;;1.60;93.10;;;;;;5076586;28;20119;-79
2021/01/09 01:57:12;;;;;;;16.73;11.57;;;1.60;93.00;;;;;;5095086;28;20380;-79
2021/01/09 01:59:41;;;;;;;24.50;13.32;;;1.60;93.00;;;;;;5076800;28;20054;-79
2021/01/09 02:02:09;;;;;;;16.83;10.30;;;1.60;93.00;;;;;;5094509;28;20032;-79
2021/01/09 02:04:35;;;;;;;16.65;10.50;;;1.60;93.30;;;;;;5094953;28;20020;-79
2021/01/09 02:07:06;;;;;;;17.45;11.05;;;1.50;93.00;;;;;;5094398;28;20020;-79
2021/01/09 02:09:37;;;;;;;17.48;11.25;;;1.50;93.00;;;;;;5094385;28;20085;-79
2021/01/09 02:12:17;;;;;;;17.63;10.75;;;1.60;93.30;;;;;;5094303;28;20024;-79
2021/01/09 02:14:50;;;;;;;19.85;11.27;;;1.50;93.00;;;;;;5096839;28;20033;-79
2021/01/09 02:17:17;;;;;;;16.52;10.23;;;1.50;93.00;;;;;;5094946;28;20032;-79
2021/01/09 02:19:44;;;;;;;19.60;11.82;;;1.50;93.00;;;;;;5093904;28;20040;-79
2021/01/09 02:22:14;;;;;;;16.40;10.15;;;1.50;93.00;;;;;;5095246;28;20481;-79
2021/01/09 02:24:45;;;;;;;18.65;9.55;;;1.50;93.00;;;;;;5074000;28;20473;-79
2021/01/09 02:27:11;;;;;;;14.50;9.15;;;1.50;93.00;;;;;;5093487;28;20016;-79
2021/01/09 02:29:44;;;;;;;13.15;8.82;;;1.40;92.90;;;;;;5095199;28;20016;-79
2021/01/09 02:32:11;;;;;;;13.68;9.07;;;1.40;93.00;;;;;;5093881;28;20051;-79
2021/01/09 02:34:41;;;;;;;15.07;9.32;;;1.40;92.90;;;;;;5074620;28;20033;-79
2021/01/09 02:37:08;;;;;;;17.45;10.07;;;1.30;92.90;;;;;;5093648;28;20111;-79
2021/01/09 02:39:34;;;;;;;26.65;12.85;;;1.30;92.90;;;;;;5076717;28;20043;-79
2021/01/09 02:42:01;;;;;;;18.75;10.68;;;1.30;92.90;;;;;;5060343;28;20024;-79
2021/01/09 02:44:26;;;;;;;15.00;9.82;;;1.30;93.00;;;;;;5076972;28;20032;-79
2021/01/09 02:46:52;;;;;;;16.23;9.77;;;1.20;93.00;;;;;;5073268;28;20046;-79
2021/01/09 02:49:18;;;;;;;16.23;10.02;;;1.20;93.00;;;;;;5093379;28;20036;-79
2021/01/09 02:51:43;;;;;;;18.25;11.23;;;1.20;93.00;;;;;;5076541;28;20039;-79
2021/01/09 02:54:09;;;;;;;17.25;10.65;;;1.20;93.30;;;;;;5059587;28;20085;-79
2021/01/09 02:56:34;;;;;;;23.85;10.10;;;1.20;92.90;;;;;;5094160;28;20035;-79
2021/01/09 02:59:00;;;;;;;18.27;10.68;;;1.20;92.90;;;;;;5092813;28;20490;-79
2021/01/09 03:01:30;;;;;;;16.30;10.95;;;1.20;92.80;;;;;;5075095;28;20059;-79
2021/01/09 03:03:57;;;;;;;16.67;9.98;;;1.20;92.80;;;;;;5092812;28;20027;-79
2021/01/09 03:06:22;;;;;;;14.88;9.32;;;1.20;92.80;;;;;;5075424;28;20058;-79
2021/01/09 03:08:48;;;;;;;17.63;9.43;;;1.20;92.70;;;;;;5075922;28;20028;-79
2021/01/09 03:11:15;;;;;;;22.88;12.45;;;1.20;92.80;;;;;;5075619;28;20388;-79
2021/01/09 03:13:42;;;;;;;19.88;11.52;;;1.10;92.80;;;;;;5072948;28;20028;-79
2021/01/09 03:16:08;;;;;;;16.70;11.18;;;1.20;92.90;;;;;;5088686;28;20024;-79
2021/01/09 03:18:34;;;;;;;17.95;11.35;;;1.20;92.90;;;;;;5092842;28;20400;-79
2021/01/09 03:20:59;;;;;;;17.58;11.23;;;1.20;92.80;;;;;;5092997;28;20103;-79
2021/01/09 03:23:25;;;;;;;15.90;10.00;;;1.20;92.70;;;;;;5075989;28;20024;-79
2021/01/09 03:25:51;;;;;;;16.58;10.68;;;1.30;92.80;;;;;;5076020;28;20028;-79
2021/01/09 03:28:16;;;;;;;16.92;10.35;;;1.30;92.80;;;;;;5075885;28;20031;-79
2021/01/09 03:30:42;;;;;;;16.50;9.85;;;1.30;93.00;;;;;;5092826;28;20028;-79
2021/01/09 03:33:07;;;;;;;16.88;9.02;;;1.20;92.70;;;;;;5093857;28;20028;-79
2021/01/09 03:35:33;;;;;;;13.40;8.82;;;1.20;92.70;;;;;;5072294;28;20499;-79
2021/01/09 03:37:59;;;;;;;13.60;9.00;;;1.10;92.80;;;;;;5092542;28;20050;-79
2021/01/09 03:40:24;;;;;;;16.50;10.23;;;1.10;92.80;;;;;;5075100;28;20028;-79
2021/01/09 03:42:50;;;;;;;14.35;9.23;;;1.10;92.80;;;;;;5092699;28;20063;-79
2021/01/09 03:45:16;;;;;;;13.23;9.45;;;1.10;92.80;;;;;;5073910;28;20389;-78
2021/01/09 03:47:41;;;;;;;17.90;10.73;;;1.10;92.80;;;;;;5092369;28;20031;-79
2021/01/09 03:50:07;;;;;;;18.95;10.35;;;1.10;92.80;;;;;;5092449;28;20370;-79
2021/01/09 03:52:33;;;;;;;30.02;12.15;;;1.10;92.70;;;;;;5092286;28;20008;-79
2021/01/09 03:54:58;;;;;;;18.85;11.35;;;1.10;92.70;;;;;;5092168;28;20460;-79
2021/01/09 03:57:24;;;;;;;19.08;11.15;;;1.10;92.70;;;;;;5092461;28;20024;-79
2021/01/09 03:59:50;;;;;;;17.85;12.05;;;1.00;92.70;;;;;;5092118;28;20043;-79
2021/01/09 04:02:15;;;;;;;18.27;10.80;;;1.00;93.00;;;;;;5075540;28;20024;-79
2021/01/09 04:04:42;;;;;;;17.95;10.68;;;1.00;92.70;;;;;;5092068;28;20020;-79
2021/01/09 04:07:08;;;;;;;16.50;10.32;;;1.00;92.70;;;;;;5093348;28;20103;-79
2021/01/09 04:09:33;;;;;;;19.13;10.75;;;1.00;92.70;;;;;;5091901;28;20040;-79
2021/01/09 04:11:59;;;;;;;18.00;11.20;;;1.00;92.70;;;;;;5075110;28;20364;-79
2021/01/09 04:14:24;;;;;;;16.45;10.52;;;1.00;92.70;;;;;;5075360;28;20032;-79
2021/01/09 04:16:50;;;;;;;14.88;10.32;;;1.00;92.70;;;;;;5091864;28;20039;-80
2021/01/09 04:19:16;;;;;;;18.80;10.70;;;1.00;92.70;;;;;;5071671;28;20059;-79
2021/01/09 04:21:45;;;;;;;17.90;10.57;;;1.00;92.70;;;;;;5072128;28;20036;-79
2021/01/09 04:24:12;;;;;;;17.15;10.45;;;1.00;92.70;;;;;;5088634;28;20035;-79
2021/01/09 04:26:38;;;;;;;16.67;10.27;;;1.00;92.70;;;;;;5069485;28;20025;-79
2021/01/09 04:29:03;;;;;;;18.80;10.30;;;1.00;92.70;;;;;;5074766;28;20043;-79
2021/01/09 04:31:29;;;;;;;19.60;11.45;;;1.00;92.70;;;;;;5091326;28;20064;-79
2021/01/09 04:33:55;;;;;;;17.13;11.27;;;1.00;92.70;;;;;;5090864;28;20067;-80
2021/01/09 04:36:20;;;;;;;19.58;11.50;;;1.00;92.70;;;;;;5054455;28;20115;-79
2021/01/09 04:38:46;;;;;;;18.10;11.43;;;1.10;92.70;;;;;;5071324;28;20033;-79
2021/01/09 04:41:12;;;;;;;16.30;10.35;;;1.10;92.70;;;;;;5071537;28;20541;-79
2021/01/09 04:43:37;;;;;;;18.80;10.70;;;1.10;92.70;;;;;;5074869;28;20028;-79
2021/01/09 04:46:03;;;;;;;16.63;11.40;;;1.10;92.70;;;;;;5091442;28;20016;-79
2021/01/09 04:48:31;;;;;;;21.38;12.57;;;1.10;92.70;;;;;;5091154;28;20134;-79
2021/01/09 04:50:57;;;;;;;16.48;11.13;;;1.10;92.70;;;;;;5092659;28;20024;-79
2021/01/09 04:53:23;;;;;;;17.65;10.57;;;1.10;92.70;;;;;;5095340;28;20035;-79
2021/01/09 04:55:52;;;;;;;17.27;10.52;;;1.10;92.70;;;;;;5076976;28;20036;-79
2021/01/09 04:58:18;;;;;;;18.27;10.45;;;1.10;92.70;;;;;;5094813;28;20032;-79
2021/01/09 05:00:47;;;;;;;21.13;10.02;;;1.10;92.70;;;;;;5094944;28;20074;-80
2021/01/09 05:03:13;;;;;;;19.80;11.95;;;1.10;92.60;;;;;;5089457;28;20047;-79
2021/01/09 05:05:38;;;;;;;17.30;11.07;;;1.10;92.60;;;;;;5075116;28;20119;-79
2021/01/09 05:08:04;;;;;;;14.15;9.50;;;1.10;92.60;;;;;;5061599;28;20473;-79
2021/01/09 05:10:36;;;;;;;16.35;11.10;;;1.10;92.60;;;;;;5078246;28;20032;-80
2021/01/09 05:13:04;;;;;;;21.70;12.45;;;1.00;92.60;;;;;;5095437;28;20107;-79
2021/01/09 05:15:38;;;;;;;16.48;10.38;;;0.90;92.60;;;;;;5095290;28;20031;-79
2021/01/09 05:18:05;;;;;;;15.88;9.65;;;0.90;92.70;;;;;;5058235;28;20033;-80
2021/01/09 05:20:31;;;;;;;18.55;10.60;;;0.80;92.70;;;;;;5087407;28;20024;-79
2021/01/09 05:22:58;;;;;;;18.45;11.18;;;0.70;92.70;;;;;;5078225;28;20063;-79
2021/01/09 05:25:25;;;;;;;19.88;11.90;;;0.70;92.80;;;;;;5095164;28;20517;-79
2021/01/09 05:27:53;;;;;;;16.10;9.48;;;0.60;92.90;;;;;;5078289;28;20028;-79
2021/01/09 05:30:19;;;;;;;17.83;10.75;;;0.60;92.90;;;;;;5074829;28;20024;-79
2021/01/09 05:32:45;;;;;;;16.88;9.82;;;0.60;92.90;;;;;;5095157;28;20480;-79
2021/01/09 05:35:14;;;;;;;16.83;9.63;;;0.60;92.90;;;;;;5096240;28;20102;-79
2021/01/09 05:37:40;;;;;;;13.38;9.15;;;0.60;93.00;;;;;;5074242;28;20036;-79
2021/01/09 05:40:06;;;;;;;14.90;8.18;;;0.60;92.90;;;;;;5089404;28;20035;-79
2021/01/09 05:42:34;;;;;;;15.65;9.60;;;0.60;92.90;;;;;;5078144;28;20048;-79
2021/01/09 05:45:00;;;;;;;14.82;9.80;;;0.60;92.90;;;;;;5094982;28;20042;-79
2021/01/09 05:47:30;;;;;;;15.30;10.00;;;0.60;92.80;;;;;;5094725;28;20374;-79
2021/01/09 05:50:00;;;;;;;15.75;10.07;;;0.60;92.70;;;;;;5095837;28;20019;-79
2021/01/09 05:52:28;;;;;;;16.95;10.25;;;0.50;92.70;;;;;;5077568;28;20032;-79
2021/01/09 05:55:00;;;;;;;16.85;10.18;;;0.60;92.70;;;;;;5077749;28;20028;-78
2021/01/09 05:57:28;;;;;;;15.25;10.10;;;0.50;92.60;;;;;;5095995;28;20032;-79
2021/01/09 05:59:57;;;;;;;16.30;10.30;;;0.50;92.70;;;;;;5095695;28;20051;-79
2021/01/09 06:02:24;;;;;;;20.45;11.85;;;0.50;92.70;;;;;;5093641;28;20111;-79
2021/01/09 06:05:05;;;;;;;24.95;14.18;;;0.50;92.70;;;;;;5077551;28;20032;-79
2021/01/09 06:07:36;;;;;;;19.50;11.00;;;0.40;92.60;;;;;;5094266;28;20034;-79
2021/01/09 06:10:12;;;;;;;17.13;10.75;;;0.40;92.60;;;;;;5077604;28;20036;-79
2021/01/09 06:12:54;;;;;;;18.27;11.52;;;0.40;92.60;;;;;;5090972;28;20020;-79
2021/01/09 06:15:24;;;;;;;14.52;9.23;;;0.40;92.60;;;;;;5095567;28;20031;-79
2021/01/09 06:17:51;;;;;;;18.15;9.13;;;0.30;92.90;;;;;;5093918;28;20025;-79
2021/01/09 06:20:17;;;;;;;18.52;9.50;;;0.30;92.60;;;;;;5093999;28;20534;-79
2021/01/09 06:22:43;;;;;;;15.40;9.52;;;0.30;92.60;;;;;;5095410;28;20034;-79
2021/01/09 06:25:11;;;;;;;17.58;9.35;;;0.30;92.60;;;;;;5093094;28;20055;-79
2021/01/09 06:27:40;;;;;;;16.13;9.05;;;0.30;92.60;;;;;;5094415;28;20099;-79
2021/01/09 06:30:10;;;;;;;23.95;11.73;;;0.30;92.90;;;;;;5076359;28;20036;-79
2021/01/09 06:32:37;;;;;;;16.10;10.13;;;0.30;92.70;;;;;;5094703;28;20073;-79
2021/01/09 06:35:04;;;;;;;15.80;9.68;;;0.30;92.70;;;;;;5093175;28;20024;-79
2021/01/09 06:37:30;;;;;;;17.13;10.70;;;0.40;92.70;;;;;;5094691;28;20032;-79
2021/01/09 06:39:56;;;;;;;18.45;11.40;;;0.40;92.60;;;;;;5076257;28;20127;-79
2021/01/09 06:42:24;;;;;;;21.30;11.70;;;0.50;92.60;;;;;;5093505;28;20476;-79
2021/01/09 06:44:51;;;;;;;15.65;9.95;;;0.50;92.60;;;;;;5093289;28;20028;-79
2021/01/09 06:47:28;;;;;;;16.58;9.52;;;0.50;92.60;;;;;;5076810;28;20036;-79
2021/01/09 06:50:12;;;;;;;19.30;10.98;;;0.50;92.60;;;;;;5093506;28;20606;-82
2021/01/09 06:52:53;;;;;;;19.10;9.68;;;0.50;92.50;;;;;;5093218;28;20066;-81
2021/01/09 06:55:54;;;;;;;17.73;10.00;;;0.50;92.50;;;;;;5093417;28;20032;-82
2021/01/09 06:58:25;;;;;;;17.48;10.43;;;0.60;92.60;;;;;;5026837;28;20069;-81
2021/01/09 07:00:50;;;;;;;20.50;10.07;;;0.50;92.50;;;;;;5067043;28;20032;-82
2021/01/09 07:03:23;;;;;;;19.52;9.77;;;0.50;92.50;;;;;;5068778;28;20422;-81
2021/01/09 07:05:51;;;;;;;22.02;10.95;;;0.60;92.50;;;;;;5093036;28;20020;-82
2021/01/09 07:08:27;;;;;;;26.02;12.68;;;0.60;92.50;;;;;;5093058;28;20491;-80
2021/01/09 07:10:55;;;;;;;26.75;11.55;;;0.60;92.50;;;;;;5072781;28;20435;-81
2021/01/09 07:13:24;;;;;;;26.90;11.85;;;0.60;92.50;;;;;;5092377;28;20031;-81
2021/01/09 07:16:06;;;;;;;;;;;0.60;92.50;;;;;;5076573;28;20032;-81
2021/01/09 07:18:36;;;;;;;29.15;13.63;;;0.70;92.50;;;;;;5088419;28;19955;-81
2021/01/09 07:21:04;;;;;;;29.27;14.02;;;0.60;92.50;;;;;;5092838;28;20103;-80
2021/01/09 07:23:33;;;;;;;53.30;20.35;;;0.60;92.50;;;;;;5092624;28;20008;-79
2021/01/09 07:26:01;;;;;;;128.40;22.60;;;0.60;92.60;;;;;;5075573;28;20024;-79
2021/01/09 07:28:32;;;;;;;64.88;17.92;;;0.60;92.90;;;;;;5092701;28;20050;-80
2021/01/09 07:31:10;;;;;;;170.13;22.27;;;0.60;92.60;;;;;;5093671;28;20410;-80
2021/01/09 07:33:37;;;;;;;36.97;15.70;;;0.50;92.80;;;;;;5078522;28;20047;-79
2021/01/09 07:36:03;;;;;;;49.15;14.50;;;0.50;92.80;;;;;;5092522;28;20020;-80
2021/01/09 07:38:29;;;;;;;85.68;17.05;;;0.50;92.80;;;;;;5072147;28;20031;-80
2021/01/09 07:40:56;;;;;;;54.72;16.05;;;0.60;92.90;;;;;;5075239;28;20542;-80
2021/01/09 07:43:41;;;;;;;72.00;16.63;;;0.60;92.80;;;;;;5092621;28;20028;-79
2021/01/09 07:46:24;;;;;;;205.35;22.83;;;0.60;92.90;;;;;;5065133;28;20048;-80
2021/01/09 07:48:51;;;;;;;111.95;17.35;;;0.60;92.80;;;;;;5092062;28;20027;-80
2021/01/09 07:51:17;;;;;;;107.25;18.98;;;0.60;92.80;;;;;;5079451;28;20039;-80
2021/01/09 07:53:47;;;;;;;88.40;18.75;;;0.60;92.90;;;;;;5091800;28;20032;-80
2021/01/09 07:56:38;;;;;;;97.95;17.98;;;0.50;92.90;;;;;;5074211;28;20035;-80
2021/01/09 07:59:07;;;;;;;254.80;27.05;;;0.50;93.00;;;;;;5083195;28;20028;-80
2021/01/09 08:01:42;;;;;;;130.68;22.10;;;0.50;93.00;;;;;;5071709;28;20032;-80
2021/01/09 08:04:12;;;;;;;115.95;21.88;;;0.50;93.00;;;;;;5056469;28;20078;-80
2021/01/09 08:06:41;;;;;;;89.70;18.30;;;0.50;93.10;;;;;;5091483;28;20028;-80
2021/01/09 08:09:08;;;;;;;158.20;22.27;;;0.50;93.10;;;;;;5091663;28;20380;-80
2021/01/09 08:11:44;;;;;;;106.78;19.75;;;0.50;93.10;;;;;;5091292;28;20032;-79
2021/01/09 08:14:11;;;;;;;139.98;20.35;;;0.50;93.10;;;;;;5074862;28;20032;-80
2021/01/09 08:16:37;;;;;;;101.03;16.02;;;0.50;93.10;;;;;;5093453;28;20032;-79
2021/01/09 08:19:12;;;;;;;100.93;18.92;;;0.40;93.10;;;;;;5074950;28;20051;-80
2021/01/09 08:21:38;;;;;;;125.15;18.30;;;0.40;93.30;;;;;;5092061;28;20024;-79
2021/01/09 08:24:04;;;;;;;67.70;16.83;;;0.40;93.30;;;;;;5072725;28;20025;-79
2021/01/09 08:26:32;;;;;;;73.45;14.63;;;0.30;93.40;;;;;;5076773;28;20040;-80
2021/01/09 08:28:58;;;;;;;84.60;14.07;;;0.40;93.40;;;;;;5091761;28;20024;-78
2021/01/09 08:31:26;;;;;;;100.82;16.27;;;0.40;93.70;;;;;;5074964;28;20353;-78
2021/01/09 08:33:51;;;;;;;305.75;23.95;;;0.50;93.40;;;;;;5091970;28;20035;-78
2021/01/09 08:36:20;;;;;;;126.22;17.27;;;0.50;93.40;;;;;;5093186;28;20028;-78
2021/01/09 08:38:45;;;;;;;170.68;17.88;;;0.50;93.30;;;;;;5071791;28;20035;-78
2021/01/09 08:41:11;;;;;;;134.32;21.77;;;0.50;93.30;;;;;;5088772;28;20017;-79
2021/01/09 08:43:37;;;;;;;79.45;16.77;;;0.50;93.30;;;;;;5068264;28;20077;-79
2021/01/09 08:46:03;;;;;;;352.10;28.60;;;0.50;93.30;;;;;;5067590;28;20025;-79
2021/01/09 08:48:34;;;;;;;101.97;18.70;;;0.50;93.40;;;;;;5070967;28;20396;-79
2021/01/09 08:51:12;;;;;;;52.42;15.45;;;0.50;93.40;;;;;;5088269;28;20577;-78
2021/01/09 08:53:51;;;;;;;152.07;19.48;;;0.50;93.50;;;;;;5090163;28;20030;-78
2021/01/09 08:56:25;;;;;;;239.77;24.70;;;0.50;93.50;;;;;;5091019;28;20393;-78
2021/01/09 08:58:52;;;;;;;51.42;16.40;;;0.50;93.50;;;;;;5074891;28;20032;-78
2021/01/09 09:01:36;;;;;;;75.70;16.30;;;0.50;93.50;;;;;;5091539;28;20480;-78
2021/01/09 09:04:03;;;;;;;183.18;19.77;;;0.60;93.50;;;;;;5086632;28;20035;-78
2021/01/09 09:06:32;;;;;;;66.25;14.27;;;0.60;93.50;;;;;;5091419;28;20112;-78
2021/01/09 09:08:58;;;;;;;48.33;12.67;;;0.60;93.30;;;;;;5092570;28;20020;-78
2021/01/09 09:11:25;;;;;;;71.97;12.85;;;0.60;93.30;;;;;;5091241;28;20035;-78
2021/01/09 09:14:10;;;;;;;193.32;19.98;;;0.60;93.30;;;;;;5090981;28;20032;-80
2021/01/09 09:16:38;;;;;;;65.38;13.65;;;0.60;93.30;;;;;;5073892;28;20052;-80
2021/01/09 09:19:14;;;;;;;279.73;24.23;;;0.60;93.20;;;;;;5053454;28;20399;-80
2021/01/09 09:21:45;;;;;;;148.02;18.10;;;0.60;93.30;;;;;;5091225;28;20027;-79
2021/01/09 09:24:12;;;;;;;139.05;17.95;;;0.60;93.30;;;;;;5092264;28;20532;-79
2021/01/09 09:26:39;;;;;;;79.85;14.60;;;0.60;93.30;;;;;;5092853;28;20422;-79
2021/01/09 09:29:05;;;;;;;63.33;13.50;;;0.60;93.30;;;;;;5092920;28;20016;-79
2021/01/09 09:31:30;;;;;;;138.82;16.48;;;0.70;93.30;;;;;;5091799;28;20028;-79
2021/01/09 09:34:12;;;;;;;329.90;18.92;;;0.70;93.30;;;;;;5091075;28;20103;-79
2021/01/09 09:36:50;;;;;;;79.28;11.75;;;0.70;93.20;;;;;;5090789;28;20120;-78
2021/01/09 09:39:18;;;;;;;71.05;11.10;;;0.70;93.00;;;;;;5094166;28;20024;-79
2021/01/09 09:42:01;;;;;;;104.25;12.05;;;0.80;93.00;;;;;;5094741;28;20027;-79
2021/01/09 09:44:40;;;;;;;112.88;13.80;;;0.90;93.00;;;;;;5094944;28;20016;-79
2021/01/09 09:47:08;;;;;;;277.77;20.58;;;0.90;92.90;;;;;;5092621;28;20028;-79
2021/01/09 09:49:37;;;;;;;118.53;14.70;;;0.90;92.90;;;;;;5094194;28;20040;-79
2021/01/09 09:52:26;;;;;;;65.20;12.93;;;0.90;92.80;;;;;;5094959;28;20428;-79
2021/01/09 09:55:06;;;;;;;80.30;13.65;;;0.90;92.90;;;;;;5078539;28;20038;-79
2021/01/09 09:57:32;;;;;;;41.75;13.13;;;0.90;92.90;;;;;;5096199;28;20026;-79
2021/01/09 10:00:11;;;;;;;34.75;12.73;;;1.00;92.80;;;;;;5094593;28;20522;-79
2021/01/09 10:02:37;;;;;;;42.05;12.30;;;1.00;92.90;;;;;;5078510;28;20380;-79
2021/01/09 10:05:13;;;;;;;26.40;13.13;;;1.00;92.90;;;;;;5077415;28;20026;-81
2021/01/09 10:07:39;;;;;;;62.63;12.68;;;1.10;93.00;;;;;;5077802;28;20035;-81
2021/01/09 10:10:15;;;;;;;57.20;12.10;;;1.20;92.90;;;;;;5077687;28;20362;-80
2021/01/09 10:12:41;;;;;;;62.55;11.98;;;1.30;92.90;;;;;;5094618;28;20028;-81
2021/01/09 10:15:08;;;;;;;113.10;14.02;;;1.40;92.80;;;;;;5074307;28;20372;-81
2021/01/09 10:17:34;;;;;;;38.67;14.13;;;1.40;92.70;;;;;;5075870;28;20028;-80
2021/01/09 10:19:59;;;;;;;87.32;18.67;;;1.40;92.90;;;;;;5057647;28;20056;-85
2021/01/09 10:22:25;;;;;;;71.28;15.30;;;1.40;92.50;;;;;;5058292;28;20029;-85
2021/01/09 10:24:51;;;;;;;46.50;15.27;;;1.40;92.90;;;;;;5061706;28;20024;-85
2021/01/09 10:27:16;;;;;;;30.63;15.80;;;1.30;92.70;;;;;;5078383;28;20034;-84
2021/01/09 10:29:42;;;;;;;63.95;18.10;;;1.30;92.70;;;;;;5078320;28;20089;-85
2021/01/09 10:32:07;;;;;;;29.23;15.38;;;1.30;93.00;;;;;;5094157;28;20020;-81
2021/01/09 10:34:33;;;;;;;45.72;15.50;;;1.30;92.90;;;;;;5076929;28;20035;-81
2021/01/09 10:36:59;;;;;;;28.00;14.43;;;1.40;92.90;;;;;;5067739;28;20390;-80
2021/01/09 10:39:24;;;;;;;37.65;16.27;;;1.40;92.80;;;;;;5056537;28;20025;-81
2021/01/09 10:41:50;;;;;;;37.63;15.13;;;1.40;92.90;;;;;;5076240;28;20031;-81
2021/01/09 10:44:16;;;;;;;30.98;14.50;;;1.50;92.80;;;;;;5094020;28;20028;-81
2021/01/09 10:46:42;;;;;;;23.13;13.60;;;1.60;92.80;;;;;;5076730;28;20081;-81
2021/01/09 10:49:07;;;;;;;40.08;15.48;;;1.70;92.70;;;;;;5093304;28;20086;-81
2021/01/09 10:51:34;;;;;;;29.90;14.82;;;1.70;92.70;;;;;;5060124;28;20051;-81
2021/01/09 10:54:03;;;;;;;48.45;18.30;;;1.70;92.60;;;;;;5093456;28;20020;-81
2021/01/09 10:56:29;;;;;;;36.72;17.13;;;1.70;92.50;;;;;;5093110;28;20092;-80
2021/01/09 10:58:54;;;;;;;37.20;16.33;;;1.60;92.50;;;;;;5094480;28;20032;-80
2021/01/09 11:01:21;;;;;;;27.50;15.50;;;1.60;92.60;;;;;;5072945;28;20033;-80
2021/01/09 11:03:47;;;;;;;23.13;13.18;;;1.60;92.70;;;;;;5089944;28;20058;-81
2021/01/09 11:06:22;;;;;;;26.55;13.63;;;1.60;92.70;;;;;;5089672;28;20496;-80
2021/01/09 11:08:49;;;;;;;21.83;13.98;;;1.70;92.80;;;;;;5089904;28;20028;-80
2021/01/09 11:11:15;;;;;;;26.88;14.45;;;1.70;92.80;;;;;;5069183;28;20028;-80
2021/01/09 11:13:40;;;;;;;24.02;13.57;;;1.80;92.70;;;;;;5092772;28;20057;-80
2021/01/09 11:16:06;;;;;;;24.08;13.27;;;1.90;92.70;;;;;;5092308;28;20024;-80
2021/01/09 11:18:32;;;;;;;26.33;12.98;;;1.90;92.70;;;;;;5092605;28;20523;-80
2021/01/09 11:20:57;;;;;;;29.83;15.32;;;2.00;92.70;;;;;;5097070;28;20028;-83
2021/01/09 11:23:23;;;;;;;30.40;14.80;;;2.00;92.60;;;;;;5103269;28;20035;-79
2021/01/09 11:25:49;;;;;;;57.22;19.77;;;2.00;92.60;;;;;;5067937;28;20017;-80
2021/01/09 11:28:16;;;;;;;51.03;19.73;;;2.10;92.60;;;;;;5081774;28;20031;-79
2021/01/09 11:30:46;;;;;;;41.38;18.73;;;2.10;92.50;;;;;;5095868;28;20019;-79
2021/01/09 11:33:12;;;;;;;47.72;18.70;;;2.10;92.60;;;;;;5099762;28;20032;-79
2021/01/09 11:35:38;;;;;;;42.80;16.75;;;2.20;92.60;;;;;;5100714;28;20023;-79
2021/01/09 11:38:04;;;;;;;46.58;19.10;;;2.20;92.50;;;;;;5103697;28;20027;-80
2021/01/09 11:40:31;;;;;;;29.15;15.35;;;2.30;92.40;;;;;;5084647;28;20060;-80
2021/01/09 11:42:57;;;;;;;44.17;17.27;;;2.30;92.30;;;;;;5083066;28;20039;-80
2021/01/09 11:45:23;;;;;;;35.75;15.75;;;2.30;92.30;;;;;;5082189;28;20020;-77
2021/01/09 11:47:49;;;;;;;43.78;16.60;;;2.30;92.30;;;;;;5101026;28;20024;-80
2021/01/09 11:50:15;;;;;;;39.42;16.23;;;2.30;92.20;;;;;;5083885;28;20434;-79
2021/01/09 11:52:41;;;;;;;45.65;16.17;;;2.30;92.30;;;;;;5100753;28;20039;-81
2021/01/09 11:55:07;;;;;;;32.88;16.45;;;2.30;92.20;;;;;;5099949;28;20488;-80
2021/01/09 11:57:33;;;;;;;26.10;15.73;;;2.20;92.20;;;;;;5103618;28;20115;-80
2021/01/09 11:59:59;;;;;;;30.17;16.75;;;2.20;92.30;;;;;;5083516;28;20130;-81
2021/01/09 12:02:24;;;;;;;35.55;17.92;;;2.20;92.40;;;;;;5077756;28;20032;-81
2021/01/09 12:04:50;;;;;;;112.15;23.83;;;2.20;92.30;;;;;;5091533;28;20024;-80
2021/01/09 12:07:16;;;;;;;41.33;18.17;;;2.20;92.30;;;;;;5075188;28;20549;-81
2021/01/09 12:09:42;;;;;;;35.67;18.80;;;2.20;92.30;;;;;;5091613;28;20097;-81
2021/01/09 12:12:08;;;;;;;41.30;19.38;;;2.20;92.30;;;;;;5074835;28;20036;-81
2021/01/09 12:14:36;;;;;;;86.93;18.58;;;2.20;92.40;;;;;;5055650;28;20388;-81
2021/01/09 12:17:02;;;;;;;328.40;29.13;;;2.30;92.30;;;;;;5075139;28;20032;-80
2021/01/09 12:19:28;;;;;;;95.63;23.33;;;2.30;92.10;;;;;;5091226;28;20583;-80
2021/01/09 12:21:55;;;;;;;48.08;22.65;;;2.30;92.10;;;;;;5078976;28;20060;-80
2021/01/09 12:24:21;;;;;;;50.25;19.35;;;2.30;92.20;;;;;;5091331;28;20032;-80
2021/01/09 12:26:54;;;;;;;40.40;20.38;;;2.30;92.30;;;;;;5073554;28;20554;-80
2021/01/09 12:29:20;;;;;;;43.25;19.00;;;2.40;92.20;;;;;;5069770;28;20051;-79
2021/01/09 12:31:46;;;;;;;35.97;18.67;;;2.40;92.20;;;;;;5099196;28;20024;-79
2021/01/09 12:34:12;;;;;;;36.60;19.75;;;2.50;92.20;;;;;;5100002;28;20373;-80
2021/01/09 12:36:38;;;;;;;72.35;21.77;;;2.50;92.10;;;;;;5101366;28;20031;-79
2021/01/09 12:39:05;;;;;;;62.65;22.05;;;2.60;92.20;;;;;;5099575;28;20094;-79
2021/01/09 12:41:41;;;;;;;36.63;19.60;;;2.60;92.10;;;;;;5086140;28;20117;-79